Time;durP1;ratioP1;P1;durP2;ratioP2;P2;SDS_P1;SDS_P2;PMS_P1;PMS_P2;Temp;Humidity;BMP_temperature;BMP_pressure;BME280_temperature;BME280_humidity;BME280_pressure;Samples;Min_cycle;Max_cycle;Signal;HPM_P1;HPM_P2
2022/10/12 00:00:06;;;;;;;44.90;28.63;;;;;;;;;;4938005;29;20052;-75
2022/10/12 00:02:57;;;;;;;51.25;28.45;;;;;;;;;;4937812;29;20052;-75
2022/10/12 00:05:42;;;;;;;46.90;28.00;;;;;;;;;;4943612;29;20052;-75
2022/10/12 00:08:29;;;;;;;49.83;31.80;;;;;;;;;;4936974;29;20039;-76
2022/10/12 00:11:17;;;;;;;53.53;32.03;;;;;;;;;;4943600;29;20401;-77
2022/10/12 00:14:03;;;;;;;51.85;31.38;;;;;;;;;;4938074;29;20052;-76
2022/10/12 00:16:49;;;;;;;60.50;31.85;;;;;;;;;;4937536;29;20043;-76
2022/10/12 00:19:34;;;;;;;56.60;33.33;;;;;;;;;;4937129;29;20051;-76
2022/10/12 00:22:20;;;;;;;61.88;32.72;;;;;;;;;;4937610;29;20486;-75
2022/10/12 00:25:06;;;;;;;58.05;31.88;;;;;;;;;;4937000;29;20044;-76
2022/10/12 00:27:51;;;;;;;47.03;29.98;;;;;;;;;;4943764;29;20051;-75
2022/10/12 00:30:39;;;;;;;52.88;30.95;;;;;;;;;;4937339;29;20052;-76
2022/10/12 00:33:27;;;;;;;50.03;30.25;;;;;;;;;;4943263;29;20044;-76
2022/10/12 00:36:17;;;;;;;44.63;27.95;;;;;;;;;;4937208;29;20481;-75
2022/10/12 00:39:05;;;;;;;51.03;28.17;;;;;;;;;;4936957;29;20051;-76
2022/10/12 00:41:51;;;;;;;45.03;27.95;;;;;;;;;;4937052;29;20043;-76
2022/10/12 00:44:36;;;;;;;46.13;28.75;;;;;;;;;;4936830;29;20048;-76
2022/10/12 00:47:33;;;;;;;50.47;28.38;;;;;;;;;;4936648;29;20047;-76
2022/10/12 00:50:33;;;;;;;50.33;29.00;;;;;;;;;;4937159;29;20051;-75
2022/10/12 00:53:23;;;;;;;47.38;28.23;;;;;;;;;;4936562;29;20482;-76
2022/10/12 00:56:17;;;;;;;43.75;25.95;;;;;;;;;;4936619;29;20056;-76
2022/10/12 00:59:05;;;;;;;43.08;25.52;;;;;;;;;;4937120;29;20490;-76
2022/10/12 01:01:50;;;;;;;43.35;25.00;;;;;;;;;;4942736;29;20486;-76
2022/10/12 01:04:37;;;;;;;42.95;25.23;;;;;;;;;;4937178;29;20391;-76
2022/10/12 01:07:22;;;;;;;41.03;24.52;;;;;;;;;;4936693;29;20048;-77
2022/10/12 01:10:08;;;;;;;43.30;24.17;;;;;;;;;;4936678;29;20047;-76
2022/10/12 01:12:53;;;;;;;40.75;23.98;;;;;;;;;;4942981;29;20398;-76
2022/10/12 01:16:02;;;;;;;43.00;23.73;;;;;;;;;;4942520;29;20044;-76
2022/10/12 01:18:54;;;;;;;42.08;22.92;;;;;;;;;;4936554;29;20043;-76
2022/10/12 01:21:47;;;;;;;39.65;23.67;;;;;;;;;;4936431;29;20052;-76
2022/10/12 01:24:52;;;;;;;42.25;23.52;;;;;;;;;;4936406;29;20055;-76
2022/10/12 01:27:46;;;;;;;44.88;24.80;;;;;;;;;;4936550;29;20408;-76
2022/10/12 01:30:47;;;;;;;38.30;24.48;;;;;;;;;;4935928;29;20044;-76
2022/10/12 01:33:39;;;;;;;40.03;23.13;;;;;;;;;;4936456;29;20044;-76
2022/10/12 01:36:47;;;;;;;39.60;22.88;;;;;;;;;;4942392;29;20044;-76
2022/10/12 01:39:45;;;;;;;46.22;23.38;;;;;;;;;;4936439;29;20048;-76
2022/10/12 01:42:38;;;;;;;36.08;22.95;;;;;;;;;;4936358;29;20039;-76
2022/10/12 01:45:24;;;;;;;38.47;23.30;;;;;;;;;;4936868;29;20040;-76
2022/10/12 01:48:09;;;;;;;35.85;22.83;;;;;;;;;;4936454;29;20044;-76
2022/10/12 01:51:00;;;;;;;42.60;22.90;;;;;;;;;;4935467;29;20507;-77
2022/10/12 01:53:51;;;;;;;41.38;23.25;;;;;;;;;;4942700;29;20051;-76
2022/10/12 01:56:49;;;;;;;38.17;22.35;;;;;;;;;;4936099;29;20051;-76
2022/10/12 01:59:56;;;;;;;36.88;23.17;;;;;;;;;;4942069;29;20396;-76
2022/10/12 02:03:16;;;;;;;37.97;22.38;;;;;;;;;;4936131;29;20043;-76
2022/10/12 02:06:07;;;;;;;37.83;21.95;;;;;;;;;;4936012;29;20394;-77
2022/10/12 02:09:16;;;;;;;37.53;22.38;;;;;;;;;;4946545;29;20056;-76
2022/10/12 02:12:09;;;;;;;34.15;22.40;;;;;;;;;;4939388;29;20051;-77
2022/10/12 02:15:00;;;;;;;34.72;21.83;;;;;;;;;;4946182;29;20055;-77
2022/10/12 02:17:47;;;;;;;38.08;21.50;;;;;;;;;;4939501;29;20055;-76
2022/10/12 02:20:34;;;;;;;34.97;21.75;;;;;;;;;;4939357;29;20501;-77
2022/10/12 02:23:23;;;;;;;34.47;21.30;;;;;;;;;;4939875;29;20051;-78
2022/10/12 02:26:11;;;;;;;34.63;21.38;;;;;;;;;;4939280;29;20043;-77
2022/10/12 02:28:59;;;;;;;32.45;20.23;;;;;;;;;;4945970;29;20055;-76
2022/10/12 02:31:54;;;;;;;32.30;21.60;;;;;;;;;;4939464;29;20044;-76
2022/10/12 02:34:49;;;;;;;35.55;20.65;;;;;;;;;;4939027;29;20493;-76
2022/10/12 02:37:42;;;;;;;31.48;20.45;;;;;;;;;;4939328;29;20044;-76
2022/10/12 02:40:40;;;;;;;36.33;20.42;;;;;;;;;;4939182;29;20051;-77
2022/10/12 02:43:31;;;;;;;30.98;19.63;;;;;;;;;;4939660;29;20410;-76
2022/10/12 02:46:19;;;;;;;30.48;21.08;;;;;;;;;;4939341;29;20052;-76
2022/10/12 02:49:05;;;;;;;34.80;20.48;;;;;;;;;;4938802;29;20048;-76
2022/10/12 02:51:51;;;;;;;34.78;21.67;;;;;;;;;;4939134;29;20398;-76
2022/10/12 02:54:36;;;;;;;36.72;21.75;;;;;;;;;;4938816;29;20048;-76
2022/10/12 02:57:22;;;;;;;36.60;22.02;;;;;;;;;;4938892;29;20048;-77
2022/10/12 03:00:08;;;;;;;45.33;24.77;;;;;;;;;;4939047;29;20051;-76
2022/10/12 03:02:54;;;;;;;39.67;25.15;;;;;;;;;;4938569;29;20043;-76
2022/10/12 03:05:39;;;;;;;48.90;27.33;;;;;;;;;;4933845;29;20036;-76
2022/10/12 03:08:25;;;;;;;51.88;28.20;;;;;;;;;;4938822;29;20409;-76
2022/10/12 03:11:12;;;;;;;43.95;25.23;;;;;;;;;;4938695;29;20056;-76
2022/10/12 03:13:57;;;;;;;45.00;26.63;;;;;;;;;;4938862;29;20040;-76
2022/10/12 03:16:45;;;;;;;43.47;27.00;;;;;;;;;;4938285;29;20047;-76
2022/10/12 03:19:30;;;;;;;53.85;31.60;;;;;;;;;;4945937;29;20485;-76
2022/10/12 03:22:16;;;;;;;49.15;29.83;;;;;;;;;;4938727;29;20047;-76
2022/10/12 03:25:02;;;;;;;46.13;28.92;;;;;;;;;;4938101;29;20048;-76
2022/10/12 03:27:47;;;;;;;48.90;28.95;;;;;;;;;;4938544;29;20056;-76
2022/10/12 03:30:33;;;;;;;53.35;29.13;;;;;;;;;;4938338;29;20048;-76
2022/10/12 03:33:19;;;;;;;42.05;27.30;;;;;;;;;;4944946;29;20059;-76
2022/10/12 03:36:04;;;;;;;47.38;28.67;;;;;;;;;;4945061;29;20040;-77
2022/10/12 03:38:50;;;;;;;42.03;26.20;;;;;;;;;;4937628;29;20039;-76
2022/10/12 03:41:35;;;;;;;48.90;27.65;;;;;;;;;;4938275;29;20039;-76
2022/10/12 03:44:21;;;;;;;49.08;26.17;;;;;;;;;;4944537;29;20043;-76
2022/10/12 03:47:06;;;;;;;44.00;25.45;;;;;;;;;;4938029;29;20495;-76
2022/10/12 03:49:52;;;;;;;36.15;21.65;;;;;;;;;;4938099;29;20498;-76
2022/10/12 03:52:37;;;;;;;28.52;19.38;;;;;;;;;;4937638;29;20047;-76
2022/10/12 03:55:23;;;;;;;32.13;18.92;;;;;;;;;;4938084;29;20047;-76
2022/10/12 03:58:08;;;;;;;32.40;19.50;;;;;;;;;;4944149;29;20056;-77
2022/10/12 04:00:54;;;;;;;31.38;20.40;;;;;;;;;;4944091;29;20397;-77
2022/10/12 04:03:40;;;;;;;32.03;19.92;;;;;;;;;;4944316;29;20052;-76
2022/10/12 04:06:26;;;;;;;30.95;19.45;;;;;;;;;;4937257;29;20048;-77
2022/10/12 04:09:11;;;;;;;37.88;20.10;;;;;;;;;;4944103;29;20044;-76
2022/10/12 04:11:57;;;;;;;28.92;19.55;;;;;;;;;;4937692;29;20401;-76
2022/10/12 04:14:42;;;;;;;30.80;20.00;;;;;;;;;;4937005;29;20047;-75
2022/10/12 04:17:28;;;;;;;33.85;20.45;;;;;;;;;;4937071;29;20059;-76
2022/10/12 04:20:13;;;;;;;30.52;20.80;;;;;;;;;;4937153;29;20051;-76
2022/10/12 04:22:59;;;;;;;35.75;19.77;;;;;;;;;;4937318;29;20043;-76
2022/10/12 04:25:45;;;;;;;31.13;20.92;;;;;;;;;;4944036;29;20044;-75
2022/10/12 04:28:31;;;;;;;30.60;21.23;;;;;;;;;;4936619;29;20051;-75
2022/10/12 04:31:16;;;;;;;30.92;21.30;;;;;;;;;;4942747;29;20044;-76
2022/10/12 04:34:02;;;;;;;36.65;21.52;;;;;;;;;;4937052;29;20043;-76
2022/10/12 04:36:48;;;;;;;34.63;19.73;;;;;;;;;;4937216;29;20055;-76
2022/10/12 04:39:34;;;;;;;35.58;20.70;;;;;;;;;;4937157;29;20052;-76
2022/10/12 04:42:19;;;;;;;38.03;21.98;;;;;;;;;;4943142;29;20043;-76
2022/10/12 04:45:05;;;;;;;32.55;21.02;;;;;;;;;;4937223;29;20043;-76
2022/10/12 04:47:50;;;;;;;33.05;21.08;;;;;;;;;;4943329;29;20051;-75
2022/10/12 04:50:36;;;;;;;43.75;22.52;;;;;;;;;;4936342;29;20048;-75
2022/10/12 04:53:22;;;;;;;31.75;22.15;;;;;;;;;;4942951;29;20043;-76
2022/10/12 04:56:07;;;;;;;36.75;22.55;;;;;;;;;;4943028;29;20490;-76
2022/10/12 04:58:52;;;;;;;32.40;22.42;;;;;;;;;;4936334;29;20056;-76
2022/10/12 05:01:38;;;;;;;36.25;22.40;;;;;;;;;;4937005;29;20052;-76
2022/10/12 05:04:23;;;;;;;35.65;23.05;;;;;;;;;;4936058;29;20074;-75
2022/10/12 05:07:08;;;;;;;38.30;23.23;;;;;;;;;;4936882;29;20405;-76
2022/10/12 05:09:54;;;;;;;46.55;24.15;;;;;;;;;;4936227;29;20047;-76
2022/10/12 05:12:39;;;;;;;39.70;22.85;;;;;;;;;;4942667;29;20064;-76
2022/10/12 05:15:25;;;;;;;38.92;24.40;;;;;;;;;;4935506;29;20044;-76
2022/10/12 05:18:10;;;;;;;36.83;23.42;;;;;;;;;;4935367;29;20052;-76
2022/10/12 05:20:56;;;;;;;37.97;22.73;;;;;;;;;;4936592;29;20051;-76
2022/10/12 05:23:42;;;;;;;37.03;23.33;;;;;;;;;;4934780;29;20055;-77
2022/10/12 05:26:28;;;;;;;39.60;24.23;;;;;;;;;;4935729;29;20056;-75
2022/10/12 05:29:14;;;;;;;38.65;25.02;;;;;;;;;;4942325;29;20048;-76
2022/10/12 05:31:59;;;;;;;44.30;24.73;;;;;;;;;;4935222;29;20437;-76
2022/10/12 05:34:45;;;;;;;35.67;24.38;;;;;;;;;;4936298;29;20052;-75
2022/10/12 05:37:32;;;;;;;40.08;25.83;;;;;;;;;;4942683;29;20048;-76
2022/10/12 05:40:18;;;;;;;39.90;23.88;;;;;;;;;;4935694;29;20055;-77
2022/10/12 05:43:03;;;;;;;39.08;24.08;;;;;;;;;;4936419;29;20048;-76
2022/10/12 05:45:48;;;;;;;40.72;22.67;;;;;;;;;;4935735;29;20048;-76
2022/10/12 05:48:34;;;;;;;38.05;22.50;;;;;;;;;;4941933;29;20051;-76
2022/10/12 05:51:20;;;;;;;32.50;22.77;;;;;;;;;;4935785;29;20059;-76
2022/10/12 05:54:05;;;;;;;36.45;24.10;;;;;;;;;;4935676;29;20061;-76
2022/10/12 05:56:51;;;;;;;36.25;23.63;;;;;;;;;;4941927;29;20051;-76
2022/10/12 05:59:36;;;;;;;39.88;24.10;;;;;;;;;;4942128;29;20071;-77
2022/10/12 06:02:22;;;;;;;40.13;24.95;;;;;;;;;;4941357;29;20047;-76
2022/10/12 06:05:08;;;;;;;35.17;23.90;;;;;;;;;;4936044;29;20051;-77
2022/10/12 06:07:53;;;;;;;37.40;23.58;;;;;;;;;;4935630;29;20052;-77
2022/10/12 06:10:45;;;;;;;47.65;25.00;;;;;;;;;;4941690;29;20056;-77
2022/10/12 06:13:30;;;;;;;45.95;25.20;;;;;;;;;;4935709;29;20501;-78
2022/10/12 06:16:16;;;;;;;42.25;27.88;;;;;;;;;;4935884;29;20051;-77
2022/10/12 06:19:02;;;;;;;51.80;31.95;;;;;;;;;;4935699;29;20036;-78
2022/10/12 06:21:47;;;;;;;45.97;28.10;;;;;;;;;;4935315;29;20482;-76
2022/10/12 06:24:33;;;;;;;50.92;27.83;;;;;;;;;;4936084;29;20044;-75
2022/10/12 06:27:19;;;;;;;44.58;26.67;;;;;;;;;;4942341;29;20055;-76
2022/10/12 06:30:04;;;;;;;48.47;30.60;;;;;;;;;;4935186;29;20044;-76
2022/10/12 06:32:49;;;;;;;48.85;33.80;;;;;;;;;;4936498;29;20043;-76
2022/10/12 06:35:34;;;;;;;55.85;31.73;;;;;;;;;;4942074;29;20048;-78
2022/10/12 06:38:20;;;;;;;41.55;27.42;;;;;;;;;;4935663;29;20498;-77
2022/10/12 06:41:05;;;;;;;43.45;24.60;;;;;;;;;;4936192;29;20043;-76
2022/10/12 06:43:51;;;;;;;46.05;24.92;;;;;;;;;;4941477;29;20051;-75
2022/10/12 06:46:36;;;;;;;38.75;25.30;;;;;;;;;;4942388;29;20048;-75
2022/10/12 06:49:22;;;;;;;41.33;24.55;;;;;;;;;;4941241;29;20044;-75
2022/10/12 06:52:08;;;;;;;44.40;25.42;;;;;;;;;;4941962;29;20047;-76
2022/10/12 06:54:53;;;;;;;45.97;26.08;;;;;;;;;;4945562;29;20490;-76
2022/10/12 06:57:39;;;;;;;51.28;29.63;;;;;;;;;;4944705;29;20043;-76
2022/10/12 07:00:24;;;;;;;45.30;28.10;;;;;;;;;;4939059;29;20043;-76
2022/10/12 07:03:12;;;;;;;44.97;25.65;;;;;;;;;;4945308;29;20055;-75
2022/10/12 07:06:06;;;;;;;44.03;25.92;;;;;;;;;;4938728;29;20056;-75
2022/10/12 07:08:53;;;;;;;40.85;25.92;;;;;;;;;;4938976;29;20401;-75
2022/10/12 07:11:39;;;;;;;41.90;25.33;;;;;;;;;;4944529;29;20047;-77
2022/10/12 07:14:24;;;;;;;50.88;28.35;;;;;;;;;;4939035;29;20401;-76
2022/10/12 07:17:10;;;;;;;42.10;27.10;;;;;;;;;;4938901;29;20052;-75
2022/10/12 07:19:55;;;;;;;50.38;29.77;;;;;;;;;;4938543;29;20047;-75
2022/10/12 07:22:41;;;;;;;45.55;30.45;;;;;;;;;;4938907;29;20044;-76
2022/10/12 07:25:26;;;;;;;55.40;30.42;;;;;;;;;;4937953;29;20044;-75
2022/10/12 07:28:12;;;;;;;48.97;28.70;;;;;;;;;;4944763;29;20051;-76
2022/10/12 07:31:08;;;;;;;51.95;28.60;;;;;;;;;;4938549;29;20047;-76
2022/10/12 07:33:53;;;;;;;50.05;31.27;;;;;;;;;;4944251;29;20044;-76
2022/10/12 07:36:43;;;;;;;51.90;32.65;;;;;;;;;;4937379;29;20047;-75
2022/10/12 07:39:28;;;;;;;55.80;33.20;;;;;;;;;;4942673;29;20043;-77
2022/10/12 07:42:14;;;;;;;54.95;32.13;;;;;;;;;;4937995;29;20044;-76
2022/10/12 07:44:59;;;;;;;44.55;27.95;;;;;;;;;;4938049;29;20051;-76
2022/10/12 07:47:45;;;;;;;45.47;27.00;;;;;;;;;;4937425;29;20398;-76
2022/10/12 07:50:30;;;;;;;39.75;25.02;;;;;;;;;;4937024;29;20044;-75
2022/10/12 07:53:16;;;;;;;41.58;26.75;;;;;;;;;;4937358;29;20048;-76
2022/10/12 07:56:04;;;;;;;41.00;25.48;;;;;;;;;;4938001;29;20055;-75
2022/10/12 07:58:55;;;;;;;39.10;26.42;;;;;;;;;;4944016;29;20047;-76
2022/10/12 08:01:40;;;;;;;39.50;24.90;;;;;;;;;;4937190;29;20048;-74
2022/10/12 08:04:26;;;;;;;46.80;26.67;;;;;;;;;;4937046;29;20040;-77
2022/10/12 08:07:12;;;;;;;43.92;27.50;;;;;;;;;;4943519;29;20043;-74
2022/10/12 08:09:57;;;;;;;53.03;31.05;;;;;;;;;;4943768;29;20409;-74
2022/10/12 08:12:44;;;;;;;53.65;31.50;;;;;;;;;;4937737;29;20509;-74
2022/10/12 08:15:29;;;;;;;65.95;33.45;;;;;;;;;;4937472;29;20039;-74
2022/10/12 08:18:14;;;;;;;60.10;32.75;;;;;;;;;;4937422;29;20043;-75
2022/10/12 08:21:06;;;;;;;55.67;33.55;;;;;;;;;;4937431;29;20043;-74
2022/10/12 08:23:52;;;;;;;62.67;35.03;;;;;;;;;;4937021;29;20048;-74
2022/10/12 08:26:38;;;;;;;62.47;33.58;;;;;;;;;;4937689;29;20051;-74
2022/10/12 08:29:23;;;;;;;55.30;35.00;;;;;;;;;;4937045;29;20048;-75
2022/10/12 08:32:08;;;;;;;52.70;33.88;;;;;;;;;;4937257;29;20055;-74
2022/10/12 08:34:54;;;;;;;51.45;32.80;;;;;;;;;;4943500;29;20443;-75
2022/10/12 08:37:39;;;;;;;55.20;32.35;;;;;;;;;;4936421;29;20406;-75
2022/10/12 08:40:30;;;;;;;57.25;32.00;;;;;;;;;;4943382;29;20048;-75
2022/10/12 08:43:51;;;;;;;45.42;30.85;;;;;;;;;;4936706;29;20374;-74
2022/10/12 08:46:37;;;;;;;44.70;31.70;;;;;;;;;;4937170;29;20052;-76
2022/10/12 08:49:25;;;;;;;50.33;30.60;;;;;;;;;;4942909;29;20497;-75
2022/10/12 08:52:31;;;;;;;51.15;31.98;;;;;;;;;;4936290;29;20040;-74
2022/10/12 08:55:22;;;;;;;46.65;30.65;;;;;;;;;;4943510;29;20051;-74
2022/10/12 08:58:17;;;;;;;50.65;32.70;;;;;;;;;;4936496;29;20051;-74
2022/10/12 09:01:35;;;;;;;50.67;33.40;;;;;;;;;;4937119;29;20044;-74
2022/10/12 09:04:42;;;;;;;50.72;32.40;;;;;;;;;;4923915;29;20048;-75
2022/10/12 09:07:35;;;;;;;45.40;29.90;;;;;;;;;;4936679;29;20474;-74
2022/10/12 09:10:36;;;;;;;48.30;30.03;;;;;;;;;;4936747;29;20048;-74
2022/10/12 09:13:41;;;;;;;46.85;31.15;;;;;;;;;;4936154;29;20286;-75
2022/10/12 09:16:28;;;;;;;;;;;;;;;;;;4936843;29;20048;-75
2022/10/12 09:19:18;;;;;;;53.22;31.70;;;;;;;;;;4936162;29;19918;-74
2022/10/12 09:22:09;;;;;;;53.25;31.10;;;;;;;;;;4936596;29;20052;-74
2022/10/12 09:24:56;;;;;;;53.38;32.85;;;;;;;;;;4936510;29;20051;-74
2022/10/12 09:27:44;;;;;;;49.17;31.90;;;;;;;;;;4941405;29;20051;-74
2022/10/12 09:30:31;;;;;;;49.05;33.30;;;;;;;;;;4936516;29;20052;-74
2022/10/12 09:33:45;;;;;;;50.97;33.75;;;;;;;;;;4936130;29;20043;-74
2022/10/12 09:36:37;;;;;;;57.20;34.20;;;;;;;;;;4936534;29;20059;-74
2022/10/12 09:39:36;;;;;;;63.55;37.92;;;;;;;;;;4935168;29;20285;-74
2022/10/12 09:42:22;;;;;;;55.67;34.92;;;;;;;;;;4935999;29;20059;-74
2022/10/12 09:45:10;;;;;;;49.28;35.45;;;;;;;;;;4936199;29;20063;-74
2022/10/12 09:48:16;;;;;;;50.53;34.85;;;;;;;;;;4936086;29;20048;-75
2022/10/12 09:51:03;;;;;;;55.40;36.33;;;;;;;;;;4936174;29;20422;-74
2022/10/12 09:53:49;;;;;;;51.45;35.67;;;;;;;;;;4936279;29;20047;-74
2022/10/12 09:56:43;;;;;;;56.45;36.80;;;;;;;;;;4935617;29;20048;-73
2022/10/12 09:59:31;;;;;;;50.78;36.03;;;;;;;;;;4935802;29;20047;-74
2022/10/12 10:02:23;;;;;;;50.80;36.15;;;;;;;;;;4934996;29;20051;-74
2022/10/12 10:05:35;;;;;;;53.80;35.83;;;;;;;;;;4936071;29;20043;-75
2022/10/12 10:08:22;;;;;;;53.53;34.80;;;;;;;;;;4942554;29;20048;-76
2022/10/12 10:11:19;;;;;;;51.58;34.35;;;;;;;;;;4942172;29;20044;-75
2022/10/12 10:14:05;;;;;;;60.70;38.33;;;;;;;;;;4936050;29;20043;-75
2022/10/12 10:16:51;;;;;;;62.22;38.15;;;;;;;;;;4941901;29;20390;-77
2022/10/12 10:19:37;;;;;;;55.17;33.45;;;;;;;;;;4941704;29;20052;-76
2022/10/12 10:22:23;;;;;;;41.50;30.88;;;;;;;;;;4935900;29;20051;-75
2022/10/12 10:25:19;;;;;;;44.75;29.90;;;;;;;;;;4935693;29;20407;-78
2022/10/12 10:28:23;;;;;;;43.80;28.98;;;;;;;;;;4944474;29;20398;-77
2022/10/12 10:31:20;;;;;;;45.65;31.60;;;;;;;;;;4938761;29;20430;-76
2022/10/12 10:34:20;;;;;;;42.97;29.90;;;;;;;;;;4939516;29;20044;-77
2022/10/12 10:37:05;;;;;;;44.05;30.63;;;;;;;;;;4945297;29;20047;-77
2022/10/12 10:39:53;;;;;;;50.70;30.30;;;;;;;;;;4945371;29;20405;-78
2022/10/12 10:42:39;;;;;;;41.42;28.38;;;;;;;;;;4939652;29;20056;-78
2022/10/12 10:45:50;;;;;;;40.72;29.83;;;;;;;;;;4938846;29;20048;-77
2022/10/12 10:49:00;;;;;;;46.70;30.52;;;;;;;;;;4938172;29;20393;-77
2022/10/12 10:51:53;;;;;;;44.22;30.60;;;;;;;;;;4938837;29;20040;-77
2022/10/12 10:54:39;;;;;;;48.63;29.95;;;;;;;;;;4939378;29;20052;-78
2022/10/12 10:57:25;;;;;;;44.30;31.90;;;;;;;;;;4939245;29;20056;-77
2022/10/12 11:00:18;;;;;;;46.88;32.00;;;;;;;;;;4944725;29;20529;-79
2022/10/12 11:03:10;;;;;;;43.08;32.10;;;;;;;;;;4938920;29;20047;-77
2022/10/12 11:06:10;;;;;;;47.95;31.55;;;;;;;;;;4938412;29;20485;-78
2022/10/12 11:09:22;;;;;;;44.35;32.80;;;;;;;;;;4938784;29;20402;-76
2022/10/12 11:12:14;;;;;;;49.35;31.38;;;;;;;;;;4937281;29;20051;-75
2022/10/12 11:15:11;;;;;;;47.85;32.85;;;;;;;;;;4938406;29;20051;-75
2022/10/12 11:18:06;;;;;;;48.03;32.55;;;;;;;;;;4938915;29;20043;-75
2022/10/12 11:20:56;;;;;;;50.20;33.15;;;;;;;;;;4938160;29;20052;-74
2022/10/12 11:23:52;;;;;;;49.70;30.15;;;;;;;;;;4944996;29;20040;-75
2022/10/12 11:26:47;;;;;;;48.33;28.88;;;;;;;;;;4938807;29;20056;-73
2022/10/12 11:29:32;;;;;;;;;;;;;;;;;;4938672;29;20056;-73
2022/10/12 11:32:23;;;;;;;46.17;26.05;;;;;;;;;;4938299;29;20272;-74
2022/10/12 11:35:23;;;;;;;44.40;29.23;;;;;;;;;;4937859;29;20493;-75
2022/10/12 11:38:32;;;;;;;41.60;28.38;;;;;;;;;;4944464;29;20036;-73
2022/10/12 11:41:33;;;;;;;37.35;26.63;;;;;;;;;;4943459;29;20047;-73
2022/10/12 11:44:24;;;;;;;46.72;30.42;;;;;;;;;;4938021;29;20048;-73
2022/10/12 11:47:28;;;;;;;46.30;28.67;;;;;;;;;;4938522;29;20047;-75
2022/10/12 11:50:35;;;;;;;43.47;30.02;;;;;;;;;;4941110;29;20055;-73
2022/10/12 11:53:24;;;;;;;43.85;28.83;;;;;;;;;;4938074;29;20059;-76
2022/10/12 11:56:33;;;;;;;37.75;25.65;;;;;;;;;;4937702;29;20077;-75
2022/10/12 11:59:28;;;;;;;35.85;24.85;;;;;;;;;;4937748;29;20047;-75
2022/10/12 12:02:21;;;;;;;37.95;26.48;;;;;;;;;;4937716;29;20398;-74
2022/10/12 12:05:12;;;;;;;38.83;27.67;;;;;;;;;;4937478;29;20051;-73
2022/10/12 12:07:58;;;;;;;44.50;27.25;;;;;;;;;;4937807;29;20043;-75
2022/10/12 12:10:51;;;;;;;47.08;27.40;;;;;;;;;;4937115;29;20048;-76
2022/10/12 12:13:37;;;;;;;41.28;26.33;;;;;;;;;;4937719;29;20506;-76
2022/10/12 12:16:30;;;;;;;44.47;26.60;;;;;;;;;;4943901;29;20056;-73
2022/10/12 12:19:35;;;;;;;36.15;23.83;;;;;;;;;;4937164;29;20051;-75
2022/10/12 12:22:25;;;;;;;39.70;28.85;;;;;;;;;;4937489;29;20048;-73
2022/10/12 12:25:11;;;;;;;44.95;29.50;;;;;;;;;;4936988;29;20402;-75
2022/10/12 12:28:19;;;;;;;51.42;29.70;;;;;;;;;;4937372;29;20039;-75
2022/10/12 12:31:17;;;;;;;44.17;27.52;;;;;;;;;;4943560;29;20393;-75
2022/10/12 12:34:11;;;;;;;47.60;28.08;;;;;;;;;;4937190;29;20047;-74
2022/10/12 12:36:57;;;;;;;39.73;25.60;;;;;;;;;;4937563;29;20040;-75
2022/10/12 12:39:43;;;;;;;45.15;26.30;;;;;;;;;;4943100;29;20043;-75
2022/10/12 12:42:33;;;;;;;49.05;28.63;;;;;;;;;;4937267;29;20044;-75
2022/10/12 12:45:31;;;;;;;49.70;27.20;;;;;;;;;;4936711;29;20040;-76
2022/10/12 12:48:42;;;;;;;48.42;27.75;;;;;;;;;;4942715;29;20052;-75
2022/10/12 12:51:35;;;;;;;48.95;28.70;;;;;;;;;;4936732;29;20047;-73
2022/10/12 12:54:22;;;;;;;44.33;28.50;;;;;;;;;;4936418;29;20059;-75
2022/10/12 12:57:17;;;;;;;37.60;25.33;;;;;;;;;;4936809;29;20047;-73
2022/10/12 13:00:24;;;;;;;;;;;;;;;;;;4936579;29;20055;-73
2022/10/12 13:03:26;;;;;;;38.55;23.17;;;;;;;;;;4936881;29;19918;-74
2022/10/12 13:06:59;;;;;;;36.92;23.38;;;;;;;;;;4943709;29;20048;-75
2022/10/12 13:09:51;;;;;;;39.28;22.95;;;;;;;;;;4936699;29;20056;-74
2022/10/12 13:12:45;;;;;;;34.20;22.95;;;;;;;;;;4936650;29;20048;-73
2022/10/12 13:15:48;;;;;;;33.17;21.98;;;;;;;;;;4935576;29;20171;-74
2022/10/12 13:19:01;;;;;;;35.72;24.05;;;;;;;;;;4935059;29;20397;-75
2022/10/12 13:21:51;;;;;;;37.15;24.90;;;;;;;;;;4935835;29;20063;-74
2022/10/12 13:24:41;;;;;;;38.60;24.58;;;;;;;;;;4936441;29;20051;-74
2022/10/12 13:27:32;;;;;;;33.38;22.10;;;;;;;;;;4936635;29;20052;-75
2022/10/12 13:30:34;;;;;;;36.08;24.85;;;;;;;;;;4935946;29;20059;-75
2022/10/12 13:33:44;;;;;;;43.20;26.70;;;;;;;;;;4935975;29;20047;-75
2022/10/12 13:36:34;;;;;;;36.85;25.02;;;;;;;;;;4935681;29;20052;-75
2022/10/12 13:39:20;;;;;;;40.78;24.63;;;;;;;;;;4936661;29;20051;-73
2022/10/12 13:42:07;;;;;;;35.28;24.77;;;;;;;;;;4936036;29;20486;-74
2022/10/12 13:44:53;;;;;;;38.63;25.88;;;;;;;;;;4936200;29;20057;-74
2022/10/12 13:47:41;;;;;;;39.92;25.70;;;;;;;;;;4942512;29;20047;-75
2022/10/12 13:50:28;;;;;;;38.78;25.27;;;;;;;;;;4938527;29;20047;-75
2022/10/12 13:53:14;;;;;;;38.10;23.00;;;;;;;;;;4936075;29;20486;-74
2022/10/12 13:56:12;;;;;;;42.22;24.40;;;;;;;;;;4936090;29;20490;-73
2022/10/12 13:59:02;;;;;;;41.60;24.42;;;;;;;;;;4935177;29;20051;-74
2022/10/12 14:01:54;;;;;;;43.38;24.15;;;;;;;;;;4943694;29;20047;-73
2022/10/12 14:04:42;;;;;;;39.03;25.92;;;;;;;;;;4939490;29;20044;-74
2022/10/12 14:07:39;;;;;;;39.92;25.17;;;;;;;;;;4940192;29;20044;-73
2022/10/12 14:10:31;;;;;;;40.30;25.90;;;;;;;;;;4931507;29;20047;-74
2022/10/12 14:13:34;;;;;;;43.63;27.85;;;;;;;;;;4944941;29;20055;-73
2022/10/12 14:16:19;;;;;;;43.58;27.40;;;;;;;;;;4939435;29;20043;-73
2022/10/12 14:19:20;;;;;;;43.50;27.45;;;;;;;;;;4939155;29;20055;-73
2022/10/12 14:22:06;;;;;;;49.90;28.55;;;;;;;;;;4939595;29;20048;-74
2022/10/12 14:25:06;;;;;;;40.47;27.58;;;;;;;;;;4938791;29;20047;-73
2022/10/12 14:27:56;;;;;;;54.80;32.15;;;;;;;;;;4939122;29;20498;-72
2022/10/12 14:30:51;;;;;;;42.53;28.60;;;;;;;;;;4944399;29;20047;-75
2022/10/12 14:33:36;;;;;;;41.63;26.10;;;;;;;;;;4938118;29;20044;-72
2022/10/12 14:36:25;;;;;;;46.63;28.92;;;;;;;;;;4938314;29;20051;-73
2022/10/12 14:39:13;;;;;;;47.17;28.05;;;;;;;;;;4938571;29;20043;-73
2022/10/12 14:42:03;;;;;;;44.88;27.85;;;;;;;;;;4939107;29;20051;-72
2022/10/12 14:44:49;;;;;;;38.75;25.98;;;;;;;;;;4938658;29;20044;-73
2022/10/12 14:47:37;;;;;;;39.28;26.20;;;;;;;;;;4944998;29;20051;-74
2022/10/12 14:50:23;;;;;;;39.55;26.58;;;;;;;;;;4942569;29;20465;-75
2022/10/12 14:53:11;;;;;;;43.80;26.98;;;;;;;;;;4938839;29;20486;-75
2022/10/12 14:55:57;;;;;;;41.10;27.17;;;;;;;;;;4938788;29;20405;-73
2022/10/12 14:58:42;;;;;;;44.22;27.85;;;;;;;;;;4945075;29;20052;-73
2022/10/12 15:01:27;;;;;;;48.38;29.83;;;;;;;;;;4938014;29;20048;-74
2022/10/12 15:04:13;;;;;;;46.35;29.73;;;;;;;;;;4938493;29;20048;-76
2022/10/12 15:06:58;;;;;;;47.25;29.35;;;;;;;;;;4944929;29;20051;-74
2022/10/12 15:09:45;;;;;;;54.00;32.25;;;;;;;;;;4938860;29;20055;-76
2022/10/12 15:12:30;;;;;;;65.72;36.28;;;;;;;;;;4944802;29;20051;-74
2022/10/12 15:15:38;;;;;;;79.43;38.60;;;;;;;;;;4938245;29;20039;-76
2022/10/12 15:18:23;;;;;;;85.25;47.25;;;;;;;;;;4938626;29;20509;-74
2022/10/12 15:21:09;;;;;;;98.53;53.97;;;;;;;;;;4938145;29;20051;-74
2022/10/12 15:23:55;;;;;;;93.40;52.80;;;;;;;;;;4938027;29;20039;-76
2022/10/12 15:26:41;;;;;;;80.22;49.13;;;;;;;;;;4938414;29;20047;-76
2022/10/12 15:29:27;;;;;;;80.90;47.83;;;;;;;;;;4938184;29;20043;-74
2022/10/12 15:32:15;;;;;;;77.22;46.55;;;;;;;;;;4938680;29;20059;-76
2022/10/12 15:35:02;;;;;;;69.32;40.40;;;;;;;;;;4938287;29;20043;-76
2022/10/12 15:37:48;;;;;;;67.03;38.58;;;;;;;;;;4937160;29;20043;-76
2022/10/12 15:40:33;;;;;;;66.13;39.33;;;;;;;;;;4938125;29;20505;-76
2022/10/12 15:43:19;;;;;;;75.45;43.85;;;;;;;;;;4943458;29;20374;-74
2022/10/12 15:46:04;;;;;;;80.75;52.40;;;;;;;;;;4937708;29;20056;-77
2022/10/12 15:48:50;;;;;;;82.97;52.42;;;;;;;;;;4936232;29;20478;-75
2022/10/12 15:51:43;;;;;;;79.65;48.55;;;;;;;;;;4936321;29;20048;-76
2022/10/12 15:54:29;;;;;;;93.05;50.50;;;;;;;;;;4943982;29;20039;-75
2022/10/12 15:57:14;;;;;;;105.25;59.60;;;;;;;;;;4937776;29;20063;-76
2022/10/12 16:00:00;;;;;;;89.80;47.35;;;;;;;;;;4936517;29;20044;-78
2022/10/12 16:02:46;;;;;;;80.40;45.40;;;;;;;;;;4942619;29;20043;-77
2022/10/12 16:05:36;;;;;;;79.95;47.90;;;;;;;;;;4942356;29;20056;-76
2022/10/12 16:08:21;;;;;;;73.43;44.47;;;;;;;;;;4937106;29;20052;-74
2022/10/12 16:11:10;;;;;;;77.63;44.80;;;;;;;;;;4937375;29;20047;-73
2022/10/12 16:13:55;;;;;;;74.80;43.17;;;;;;;;;;4937060;29;20048;-73
2022/10/12 16:16:40;;;;;;;69.60;41.92;;;;;;;;;;4935469;29;20044;-75
2022/10/12 16:19:25;;;;;;;75.57;42.72;;;;;;;;;;4936894;29;20486;-76
2022/10/12 16:22:11;;;;;;;87.68;49.17;;;;;;;;;;4937176;29;20056;-74
2022/10/12 16:24:57;;;;;;;85.50;47.22;;;;;;;;;;4936587;29;20043;-75
2022/10/12 16:27:45;;;;;;;78.38;45.88;;;;;;;;;;4942107;29;20051;-76
2022/10/12 16:30:31;;;;;;;90.07;47.08;;;;;;;;;;4943381;29;20048;-72